Time;durP1;ratioP1;P1;durP2;ratioP2;P2;SDS_P1;SDS_P2;PMS_P1;PMS_P2;Temp;Humidity;BMP_temperature;BMP_pressure;BME280_temperature;BME280_humidity;BME280_pressure;Samples;Min_cycle;Max_cycle;Signal;HPM_P1;HPM_P2
2024/03/15 00:01:38;;;;;;;7.55;6.03;;;11.00;99.90;;;;;;5035399;28;20025;-91
2024/03/15 00:04:04;;;;;;;7.78;5.70;;;10.80;99.90;;;;;;5038978;28;20037;-91
2024/03/15 00:06:30;;;;;;;8.23;6.93;;;10.70;99.90;;;;;;5037858;28;20029;-91
2024/03/15 00:08:56;;;;;;;8.32;5.40;;;10.70;99.90;;;;;;5038171;28;20033;-91
2024/03/15 00:11:25;;;;;;;8.32;6.57;;;10.70;99.90;;;;;;5029128;28;20036;-90
2024/03/15 00:13:51;;;;;;;7.45;5.18;;;10.80;99.90;;;;;;5030884;28;20041;-91
2024/03/15 00:16:16;;;;;;;9.73;5.60;;;10.80;99.90;;;;;;5030531;28;20034;-90
2024/03/15 00:18:42;;;;;;;9.15;5.25;;;10.80;99.90;;;;;;5026328;28;20572;-91
2024/03/15 00:21:07;;;;;;;8.05;5.32;;;10.80;99.90;;;;;;5028489;28;20025;-90
2024/03/15 00:23:33;;;;;;;9.15;5.53;;;10.70;99.90;;;;;;5036518;28;20055;-90
2024/03/15 00:25:59;;;;;;;7.15;5.75;;;10.70;99.90;;;;;;5037735;28;20112;-92
2024/03/15 00:28:24;;;;;;;9.30;6.47;;;10.70;99.90;;;;;;5037699;28;20041;-91
2024/03/15 00:30:50;;;;;;;11.50;6.22;;;10.70;99.90;;;;;;5036506;28;20036;-91
2024/03/15 00:33:16;;;;;;;7.72;5.38;;;10.70;99.90;;;;;;5029654;28;20392;-90
2024/03/15 00:35:44;;;;;;;6.95;6.05;;;10.70;99.90;;;;;;5024787;28;20029;-92
2024/03/15 00:38:10;;;;;;;7.30;5.82;;;10.60;99.90;;;;;;5015194;28;20420;-92
2024/03/15 00:40:36;;;;;;;10.05;5.68;;;10.60;99.90;;;;;;5026286;28;20017;-92
2024/03/15 00:43:03;;;;;;;10.20;6.72;;;10.60;99.90;;;;;;5035918;28;20026;-94
2024/03/15 00:45:29;;;;;;;9.45;6.55;;;10.50;99.90;;;;;;5028364;28;20025;-91
2024/03/15 00:47:55;;;;;;;7.05;6.32;;;10.50;99.90;;;;;;5036193;28;20184;-91
2024/03/15 00:50:21;;;;;;;6.88;5.68;;;10.50;99.90;;;;;;5032647;28;20534;-91
2024/03/15 00:52:47;;;;;;;9.05;6.40;;;10.50;99.90;;;;;;5033128;28;20033;-91
2024/03/15 00:55:12;;;;;;;8.30;6.25;;;10.50;99.90;;;;;;5036027;28;20112;-91
2024/03/15 00:57:38;;;;;;;8.73;7.03;;;10.60;99.90;;;;;;5036144;28;20037;-90
2024/03/15 01:00:05;;;;;;;10.00;7.20;;;10.60;99.90;;;;;;5036584;28;20443;-90
2024/03/15 01:02:30;;;;;;;9.90;6.60;;;10.60;99.90;;;;;;5036505;28;20025;-90
2024/03/15 01:04:56;;;;;;;7.03;6.05;;;10.60;99.90;;;;;;5028785;28;20614;-90
2024/03/15 01:07:22;;;;;;;7.30;6.35;;;10.60;99.90;;;;;;5036652;28;20476;-93
2024/03/15 01:09:48;;;;;;;9.25;6.97;;;10.70;99.90;;;;;;5020856;28;20061;-90
2024/03/15 01:12:14;;;;;;;8.05;6.28;;;10.70;99.90;;;;;;5016193;28;20054;-91
2024/03/15 01:14:40;;;;;;;9.23;6.35;;;10.80;99.90;;;;;;5050020;28;20033;-94
2024/03/15 01:17:07;;;;;;;9.73;7.28;;;10.70;99.90;;;;;;5057264;28;20018;-92
2024/03/15 01:19:33;;;;;;;8.77;6.68;;;10.80;99.90;;;;;;5057766;28;20013;-93
2024/03/15 01:22:00;;;;;;;9.15;7.15;;;10.80;99.90;;;;;;5055133;28;20049;-92
2024/03/15 01:24:26;;;;;;;7.95;6.30;;;10.80;99.90;;;;;;5055754;28;20033;-94
2024/03/15 01:26:52;;;;;;;8.43;6.25;;;10.80;99.90;;;;;;5035486;28;20033;-91
2024/03/15 01:29:17;;;;;;;9.48;7.05;;;10.80;99.90;;;;;;5029359;28;20723;-92
2024/03/15 01:31:44;;;;;;;8.45;5.78;;;10.80;99.90;;;;;;5033849;28;20391;-90
2024/03/15 01:34:09;;;;;;;10.00;6.53;;;10.80;99.90;;;;;;5035820;28;20026;-92
2024/03/15 01:36:35;;;;;;;10.43;7.43;;;10.80;99.90;;;;;;5027210;28;20039;-91
2024/03/15 01:39:00;;;;;;;10.32;6.22;;;10.80;99.90;;;;;;5031517;28;20049;-91
2024/03/15 01:41:26;;;;;;;9.80;6.43;;;10.80;99.90;;;;;;5015324;28;20452;-92
2024/03/15 01:43:52;;;;;;;10.23;6.90;;;10.90;99.90;;;;;;5015811;28;20022;-90
2024/03/15 01:46:17;;;;;;;9.35;6.20;;;10.80;99.90;;;;;;5015868;28;20032;-91
2024/03/15 01:48:45;;;;;;;6.82;5.60;;;10.80;99.90;;;;;;5023990;28;20025;-92
2024/03/15 01:51:11;;;;;;;7.22;5.65;;;10.80;99.90;;;;;;5029136;28;20547;-93
2024/03/15 01:53:37;;;;;;;8.48;5.75;;;10.80;99.90;;;;;;5033361;28;20033;-90
2024/03/15 01:56:03;;;;;;;8.60;4.53;;;10.70;99.90;;;;;;5024859;28;20021;-92
2024/03/15 01:58:30;;;;;;;9.40;5.28;;;10.70;99.90;;;;;;5034103;28;20511;-90
2024/03/15 02:00:56;;;;;;;8.70;5.28;;;10.70;99.90;;;;;;5034375;28;20029;-92
2024/03/15 02:03:23;;;;;;;8.45;5.55;;;10.60;99.90;;;;;;5034007;28;20021;-90
2024/03/15 02:05:49;;;;;;;7.57;5.32;;;10.60;99.90;;;;;;5033909;28;20412;-91
2024/03/15 02:08:19;;;;;;;7.70;4.90;;;10.60;99.90;;;;;;5027303;28;20080;-91
2024/03/15 02:10:45;;;;;;;7.82;4.93;;;10.50;99.90;;;;;;5033575;28;20037;-91
2024/03/15 02:13:11;;;;;;;7.45;5.13;;;10.60;99.90;;;;;;5034059;28;20037;-93
2024/03/15 02:15:36;;;;;;;6.95;5.15;;;10.60;99.90;;;;;;5034575;28;20030;-90
2024/03/15 02:18:03;;;;;;;6.47;5.22;;;10.60;99.90;;;;;;5029962;28;20018;-91
2024/03/15 02:20:28;;;;;;;5.70;4.38;;;10.70;99.90;;;;;;5030951;28;20026;-91
2024/03/15 02:22:54;;;;;;;5.50;4.93;;;10.70;99.90;;;;;;5024170;28;20097;-90
2024/03/15 02:25:20;;;;;;;6.30;4.75;;;10.60;99.90;;;;;;5032167;28;20096;-91
2024/03/15 02:27:45;;;;;;;8.93;4.72;;;10.70;99.90;;;;;;5038439;28;20037;-88
2024/03/15 02:30:11;;;;;;;6.20;5.32;;;10.70;99.90;;;;;;5037238;28;20421;-91
2024/03/15 02:32:38;;;;;;;6.38;5.60;;;10.70;99.90;;;;;;5038400;28;20021;-91
2024/03/15 02:35:07;;;;;;;7.38;4.30;;;10.70;99.90;;;;;;5037959;28;20449;-92
2024/03/15 02:37:33;;;;;;;6.57;4.65;;;10.70;99.90;;;;;;5029029;28;20384;-90
2024/03/15 02:39:58;;;;;;;6.85;5.03;;;10.70;99.90;;;;;;5030166;28;20048;-92
2024/03/15 02:42:25;;;;;;;6.68;5.38;;;10.60;99.90;;;;;;5036735;28;20438;-92
2024/03/15 02:44:50;;;;;;;7.30;4.78;;;10.60;99.90;;;;;;5037188;28;20022;-91
2024/03/15 02:47:16;;;;;;;7.15;5.00;;;10.60;99.90;;;;;;5038597;28;20237;-91
2024/03/15 02:49:42;;;;;;;4.93;4.25;;;10.60;99.90;;;;;;5035504;28;20022;-92
2024/03/15 02:52:08;;;;;;;8.02;4.88;;;10.60;99.90;;;;;;5037175;28;20098;-93
2024/03/15 02:54:33;;;;;;;5.05;4.20;;;10.60;99.90;;;;;;5036789;28;20025;-91
2024/03/15 02:56:59;;;;;;;8.13;5.25;;;10.60;99.90;;;;;;5037335;28;20025;-91
2024/03/15 02:59:25;;;;;;;5.57;4.20;;;10.60;99.90;;;;;;5038043;28;20092;-91
2024/03/15 03:01:51;;;;;;;5.57;3.80;;;10.60;99.90;;;;;;5037088;28;20021;-90
2024/03/15 03:04:18;;;;;;;8.07;4.70;;;10.60;99.90;;;;;;5038516;28;20048;-92
2024/03/15 03:06:45;;;;;;;7.43;4.70;;;10.70;99.90;;;;;;5027421;28;20369;-91
2024/03/15 03:09:12;;;;;;;5.40;4.90;;;10.60;99.90;;;;;;5018905;28;20025;-93
2024/03/15 03:11:38;;;;;;;7.97;4.50;;;10.60;99.90;;;;;;5026943;28;20033;-90
2024/03/15 03:14:07;;;;;;;7.05;4.43;;;10.60;99.90;;;;;;5037771;28;20025;-91
2024/03/15 03:16:34;;;;;;;10.35;5.40;;;10.50;99.90;;;;;;5037971;28;20068;-90
2024/03/15 03:19:00;;;;;;;6.70;5.32;;;10.50;99.90;;;;;;5036142;28;20097;-92
2024/03/15 03:21:26;;;;;;;7.68;6.00;;;10.40;99.90;;;;;;5037220;28;20103;-91
2024/03/15 03:23:57;;;;;;;9.57;5.38;;;10.40;99.90;;;;;;5021203;28;20018;-90
2024/03/15 03:26:29;;;;;;;7.10;5.28;;;10.40;99.90;;;;;;5019843;28;20030;-89
2024/03/15 03:28:56;;;;;;;6.20;4.40;;;10.40;99.90;;;;;;5029451;28;20029;-92
2024/03/15 03:31:22;;;;;;;4.53;3.63;;;10.40;99.90;;;;;;5038310;28;20025;-90
2024/03/15 03:33:48;;;;;;;8.63;4.20;;;10.40;99.90;;;;;;5036835;28;20045;-90
2024/03/15 03:36:14;;;;;;;5.20;4.45;;;10.50;99.90;;;;;;5038124;28;20029;-92
2024/03/15 03:38:39;;;;;;;5.40;3.63;;;10.50;99.90;;;;;;5035867;28;20031;-91
2024/03/15 03:41:06;;;;;;;4.57;3.33;;;10.60;99.90;;;;;;5029760;28;20068;-90
2024/03/15 03:43:32;;;;;;;6.47;3.58;;;10.60;99.90;;;;;;5036182;28;20049;-91
2024/03/15 03:45:57;;;;;;;6.97;3.90;;;10.60;99.90;;;;;;5030702;28;20021;-90
2024/03/15 03:48:23;;;;;;;5.25;2.97;;;10.60;99.90;;;;;;5037512;28;20032;-91
2024/03/15 03:50:49;;;;;;;4.45;3.60;;;10.70;99.90;;;;;;5040128;28;20037;-91
2024/03/15 03:53:14;;;;;;;6.03;3.63;;;10.70;99.70;;;;;;5033352;28;20034;-91
2024/03/15 03:55:41;;;;;;;4.63;3.15;;;10.70;99.50;;;;;;5027494;28;20057;-92
2024/03/15 03:58:09;;;;;;;5.50;3.92;;;10.70;99.70;;;;;;5017082;28;20095;-91
2024/03/15 04:00:34;;;;;;;4.05;2.58;;;10.70;98.80;;;;;;5017349;28;20029;-90
2024/03/15 04:03:04;;;;;;;5.93;2.78;;;10.70;98.50;;;;;;5017798;28;20021;-91
2024/03/15 04:05:30;;;;;;;5.93;3.60;;;10.70;98.20;;;;;;5016396;28;20057;-91
2024/03/15 04:07:56;;;;;;;5.72;2.95;;;10.70;98.40;;;;;;5021457;28;20025;-90
2024/03/15 04:10:23;;;;;;;3.95;3.53;;;10.70;98.20;;;;;;5037079;28;20091;-91
2024/03/15 04:12:49;;;;;;;4.93;2.50;;;10.70;98.20;;;;;;5036667;28;20021;-93
2024/03/15 04:15:16;;;;;;;5.63;3.63;;;10.70;97.70;;;;;;5032861;28;20120;-91
2024/03/15 04:17:42;;;;;;;4.82;2.97;;;10.70;97.50;;;;;;5034786;28;20030;-91
2024/03/15 04:20:12;;;;;;;5.72;3.72;;;10.70;97.60;;;;;;5031404;28;20037;-91
2024/03/15 04:22:42;;;;;;;3.17;2.92;;;10.60;97.30;;;;;;5026277;28;20025;-90
2024/03/15 04:25:16;;;;;;;4.55;4.05;;;10.60;97.10;;;;;;5029480;28;20029;-92
2024/03/15 04:27:46;;;;;;;4.95;4.30;;;10.70;96.90;;;;;;5037225;28;20032;-92
2024/03/15 04:30:15;;;;;;;4.47;4.07;;;10.60;96.80;;;;;;5035399;28;20022;-90
2024/03/15 04:32:49;;;;;;;4.40;3.72;;;10.60;96.90;;;;;;5024136;28;20072;-90
2024/03/15 04:35:18;;;;;;;4.22;3.33;;;10.60;97.10;;;;;;5036756;28;20057;-91
2024/03/15 04:37:44;;;;;;;5.93;3.20;;;10.60;96.50;;;;;;5025423;28;20018;-92
2024/03/15 04:40:11;;;;;;;5.05;3.35;;;10.60;96.00;;;;;;5017305;28;20022;-92
2024/03/15 04:42:37;;;;;;;4.88;3.22;;;10.50;96.20;;;;;;5018328;28;20050;-92
2024/03/15 04:45:09;;;;;;;3.88;2.88;;;10.50;95.90;;;;;;5034828;28;20022;-93
2024/03/15 04:47:38;;;;;;;3.28;2.72;;;10.50;95.90;;;;;;5034875;28;20017;-92
2024/03/15 04:50:09;;;;;;;6.28;3.55;;;10.50;95.30;;;;;;5035373;28;20018;-92
2024/03/15 04:52:36;;;;;;;8.88;3.25;;;10.50;95.00;;;;;;5033300;28;20069;-93
2024/03/15 04:55:03;;;;;;;4.88;3.15;;;10.50;95.10;;;;;;5030103;28;20018;-91
2024/03/15 04:57:29;;;;;;;6.15;2.47;;;10.40;95.40;;;;;;5034321;28;20611;-92
2024/03/15 04:59:55;;;;;;;7.00;2.63;;;10.30;95.90;;;;;;5035292;28;20028;-92
2024/03/15 05:02:21;;;;;;;4.28;3.03;;;10.30;97.10;;;;;;5034529;28;20057;-91
2024/03/15 05:04:47;;;;;;;5.70;2.97;;;10.20;97.70;;;;;;5031109;28;20029;-92
2024/03/15 05:07:12;;;;;;;3.75;2.05;;;10.20;98.00;;;;;;5036268;28;20108;-92
2024/03/15 05:09:38;;;;;;;4.40;2.67;;;10.10;97.80;;;;;;5029056;28;20053;-91
2024/03/15 05:12:04;;;;;;;3.72;2.70;;;10.10;98.40;;;;;;5035006;28;20044;-91
2024/03/15 05:14:33;;;;;;;5.70;3.85;;;10.00;98.50;;;;;;5036411;28;20483;-91
2024/03/15 05:16:58;;;;;;;4.28;2.70;;;10.00;98.70;;;;;;5036786;28;20105;-91
2024/03/15 05:19:24;;;;;;;7.05;2.80;;;10.00;98.30;;;;;;5028965;28;20099;-90
2024/03/15 05:21:50;;;;;;;4.57;2.58;;;10.00;96.70;;;;;;5030994;28;20530;-91
2024/03/15 05:24:16;;;;;;;4.65;3.10;;;10.10;95.90;;;;;;5034929;28;20026;-91
2024/03/15 05:26:42;;;;;;;3.92;3.00;;;10.10;94.30;;;;;;5036092;28;20017;-90
2024/03/15 05:29:08;;;;;;;3.75;2.95;;;10.10;94.50;;;;;;5031773;28;20026;-91
2024/03/15 05:31:34;;;;;;;4.03;2.97;;;10.10;93.30;;;;;;5031150;28;20056;-90
2024/03/15 05:34:00;;;;;;;5.72;2.45;;;10.10;92.20;;;;;;5035880;28;20395;-89
2024/03/15 05:36:26;;;;;;;5.07;2.60;;;10.20;92.60;;;;;;5031260;28;20029;-92
2024/03/15 05:38:55;;;;;;;4.88;3.10;;;10.10;91.70;;;;;;5031766;28;20049;-91
2024/03/15 05:41:21;;;;;;;3.22;2.70;;;10.20;90.40;;;;;;5029097;28;20017;-92
2024/03/15 05:43:46;;;;;;;5.50;2.53;;;10.20;90.10;;;;;;5032735;28;20025;-93
2024/03/15 05:46:12;;;;;;;3.35;2.25;;;10.30;89.80;;;;;;5020655;28;20483;-91
2024/03/15 05:48:38;;;;;;;3.75;2.20;;;10.30;89.00;;;;;;5035054;28;20076;-92
2024/03/15 05:51:04;;;;;;;3.78;3.08;;;10.40;88.60;;;;;;5035344;28;20033;-91
2024/03/15 05:53:30;;;;;;;3.95;2.10;;;10.40;87.70;;;;;;5032824;28;20085;-92
2024/03/15 05:55:56;;;;;;;2.70;2.25;;;10.60;87.00;;;;;;5035783;28;20053;-91
2024/03/15 05:58:21;;;;;;;2.95;2.65;;;10.60;86.70;;;;;;5033074;28;20112;-89
2024/03/15 06:00:48;;;;;;;4.13;1.88;;;10.70;86.70;;;;;;5029551;28;20046;-92
2024/03/15 06:03:16;;;;;;;4.03;2.50;;;10.70;85.80;;;;;;5035143;28;20041;-89
2024/03/15 06:05:42;;;;;;;3.65;2.20;;;10.80;85.60;;;;;;5033689;28;20037;-92
2024/03/15 06:08:10;;;;;;;3.80;2.17;;;10.80;85.00;;;;;;5030699;28;20033;-91
2024/03/15 06:10:38;;;;;;;;;;;10.90;84.90;;;;;;5027002;28;20021;-92
2024/03/15 06:13:05;;;;;;;4.78;2.42;;;10.80;84.90;;;;;;5016893;28;19913;-92
2024/03/15 06:15:30;;;;;;;8.30;3.05;;;10.80;85.00;;;;;;5020681;28;20061;-93
2024/03/15 06:17:56;;;;;;;5.32;2.55;;;10.80;84.60;;;;;;5022662;28;20053;-91
2024/03/15 06:20:22;;;;;;;12.52;5.25;;;10.80;84.50;;;;;;5019390;28;20079;-93
2024/03/15 06:22:47;;;;;;;5.10;3.03;;;10.80;85.00;;;;;;5022926;28;20081;-92
2024/03/15 06:25:13;;;;;;;3.53;3.22;;;10.80;84.70;;;;;;5019441;28;20045;-92
2024/03/15 06:27:44;;;;;;;5.57;2.17;;;10.80;84.70;;;;;;5020582;28;20065;-90
2024/03/15 06:30:12;;;;;;;2.78;2.33;;;10.90;84.50;;;;;;5021855;28;20034;-92
2024/03/15 06:32:39;;;;;;;5.80;2.40;;;10.90;84.20;;;;;;5026088;28;20025;-95
2024/03/15 06:35:27;;;;;;;6.53;3.17;;;11.00;84.70;;;;;;5037498;28;20022;-94
2024/03/15 06:37:54;;;;;;;3.40;2.17;;;11.20;82.80;;;;;;5031927;28;20039;-91
2024/03/15 06:40:42;;;;;;;3.53;2.15;;;11.30;81.90;;;;;;5021965;28;20040;-92
2024/03/15 06:48:17;;;;;;;;;;;11.50;82.70;;;;;;5027509;28;20033;-92
2024/03/15 06:51:00;;;;;;;4.85;2.67;;;11.50;82.70;;;;;;5020823;28;20052;-91
2024/03/15 06:53:26;;;;;;;6.93;2.67;;;11.60;82.50;;;;;;5020818;28;20033;-91
2024/03/15 06:55:52;;;;;;;4.43;2.70;;;11.70;82.80;;;;;;5021349;28;20033;-91
2024/03/15 06:58:17;;;;;;;5.13;2.42;;;11.80;81.60;;;;;;5021750;28;20088;-91
2024/03/15 07:00:45;;;;;;;4.60;2.25;;;11.90;82.50;;;;;;5019520;28;20026;-92
2024/03/15 07:03:11;;;;;;;6.72;3.38;;;12.00;82.80;;;;;;5021121;28;20388;-94
2024/03/15 07:05:37;;;;;;;3.85;2.75;;;12.20;81.00;;;;;;5020752;28;20032;-93
2024/03/15 07:08:05;;;;;;;6.75;3.60;;;12.30;81.50;;;;;;5020554;28;20632;-92
2024/03/15 07:10:31;;;;;;;5.88;2.63;;;12.40;80.90;;;;;;5024846;28;20168;-94
2024/03/15 07:12:57;;;;;;;7.68;2.83;;;12.60;80.10;;;;;;5026296;28;20203;-93
2024/03/15 07:15:22;;;;;;;4.07;2.50;;;12.80;76.70;;;;;;5023750;28;20195;-89
2024/03/15 07:17:48;;;;;;;10.27;4.05;;;12.90;74.50;;;;;;5024335;28;20025;-91
2024/03/15 07:20:14;;;;;;;3.97;2.88;;;13.10;74.20;;;;;;5030243;28;20040;-91
2024/03/15 07:22:40;;;;;;;2.92;2.40;;;13.20;75.50;;;;;;5033375;28;20025;-90
2024/03/15 07:25:06;;;;;;;3.83;2.47;;;13.20;74.50;;;;;;5030947;28;20100;-91
2024/03/15 07:27:32;;;;;;;3.22;2.50;;;13.30;74.70;;;;;;5027778;28;20037;-90
2024/03/15 07:30:01;;;;;;;5.20;2.95;;;13.40;74.30;;;;;;5016090;28;20088;-91
2024/03/15 07:32:27;;;;;;;3.63;2.17;;;13.50;74.20;;;;;;5027324;28;20022;-91
2024/03/15 07:34:53;;;;;;;4.43;3.45;;;13.70;74.00;;;;;;5017117;28;20090;-90
2024/03/15 07:37:19;;;;;;;6.57;2.75;;;13.80;76.10;;;;;;5030535;28;20109;-90
2024/03/15 07:39:45;;;;;;;4.00;2.13;;;13.90;73.30;;;;;;5026947;28;20030;-91
2024/03/15 07:42:11;;;;;;;2.90;2.42;;;14.00;72.40;;;;;;5017808;28;20077;-91
2024/03/15 07:44:38;;;;;;;4.38;2.80;;;14.20;72.40;;;;;;5036148;28;20021;-92
2024/03/15 07:47:03;;;;;;;4.72;2.60;;;14.30;73.00;;;;;;5037697;28;20034;-90
2024/03/15 07:49:29;;;;;;;4.90;2.47;;;14.50;73.70;;;;;;5029762;28;20484;-91
2024/03/15 07:51:56;;;;;;;4.97;3.05;;;14.60;72.20;;;;;;5051613;28;20056;-93
2024/03/15 07:54:22;;;;;;;6.35;2.67;;;14.80;69.30;;;;;;5058065;28;20040;-92
2024/03/15 07:56:49;;;;;;;3.60;2.47;;;14.90;69.90;;;;;;5050027;28;20037;-91
2024/03/15 07:59:14;;;;;;;6.35;2.20;;;14.90;70.00;;;;;;5057919;28;20025;-90
2024/03/15 08:01:43;;;;;;;5.93;2.35;;;14.80;69.30;;;;;;5037964;28;20018;-91
2024/03/15 08:04:14;;;;;;;5.35;2.38;;;14.70;70.20;;;;;;5027999;28;20381;-90
2024/03/15 08:06:39;;;;;;;3.80;2.65;;;14.70;71.80;;;;;;5019378;28;20017;-91
2024/03/15 08:09:06;;;;;;;5.80;2.15;;;14.60;70.70;;;;;;5032378;28;20547;-91
2024/03/15 08:11:35;;;;;;;5.05;2.08;;;14.50;71.90;;;;;;5033263;28;20029;-91
2024/03/15 08:14:05;;;;;;;4.78;2.38;;;14.20;74.60;;;;;;5037009;28;20367;-90
2024/03/15 08:16:34;;;;;;;4.72;2.72;;;14.20;76.40;;;;;;5036213;28;20112;-90
2024/03/15 08:19:04;;;;;;;3.78;2.83;;;14.00;81.20;;;;;;5037577;28;20018;-92
2024/03/15 08:21:30;;;;;;;4.75;2.90;;;13.90;82.20;;;;;;5028683;28;20083;-91
2024/03/15 08:23:57;;;;;;;4.55;2.90;;;13.90;84.10;;;;;;5036158;28;20117;-92
2024/03/15 08:26:23;;;;;;;7.05;3.03;;;13.80;82.70;;;;;;5036674;28;20018;-91
2024/03/15 08:28:51;;;;;;;3.47;3.17;;;13.80;83.00;;;;;;5035906;28;20036;-91
2024/03/15 08:31:17;;;;;;;4.25;2.70;;;13.80;83.10;;;;;;5036776;28;20032;-90
2024/03/15 08:33:45;;;;;;;3.58;3.17;;;13.80;84.60;;;;;;5026265;28;20077;-91
2024/03/15 08:36:12;;;;;;;4.15;3.03;;;13.80;84.50;;;;;;5030372;28;20112;-91
2024/03/15 08:38:39;;;;;;;5.15;2.30;;;13.80;82.50;;;;;;5026891;28;20084;-90
2024/03/15 08:41:05;;;;;;;4.05;2.85;;;13.80;82.90;;;;;;5035818;28;20072;-91
2024/03/15 08:43:31;;;;;;;4.40;2.15;;;13.90;84.10;;;;;;5033856;28;20468;-90
2024/03/15 08:45:57;;;;;;;4.75;2.60;;;13.90;81.70;;;;;;5035907;28;20037;-93
2024/03/15 08:48:23;;;;;;;5.50;3.22;;;13.90;82.70;;;;;;5034735;28;20034;-93
2024/03/15 08:50:49;;;;;;;4.88;3.38;;;14.00;82.60;;;;;;5020201;28;20025;-91
2024/03/15 08:53:14;;;;;;;4.40;2.95;;;14.00;81.80;;;;;;5034711;28;20651;-91
2024/03/15 08:55:42;;;;;;;3.70;2.65;;;14.10;82.20;;;;;;5030250;28;20040;-91
2024/03/15 08:58:11;;;;;;;3.25;2.70;;;14.10;83.50;;;;;;5028413;28;20030;-92
2024/03/15 09:00:39;;;;;;;4.43;2.72;;;14.00;82.90;;;;;;5016637;28;20117;-91
2024/03/15 09:03:09;;;;;;;4.13;2.90;;;14.00;84.70;;;;;;5015425;28;20022;-92
2024/03/15 09:05:37;;;;;;;5.75;3.13;;;14.00;86.10;;;;;;5023394;28;20030;-91
2024/03/15 09:08:10;;;;;;;6.07;3.00;;;13.80;87.90;;;;;;5036484;28;20108;-93
2024/03/15 09:10:36;;;;;;;5.13;2.95;;;13.80;90.50;;;;;;5036009;28;20033;-92
2024/03/15 09:13:02;;;;;;;3.60;2.60;;;13.80;90.70;;;;;;5035884;28;20030;-92
2024/03/15 09:15:28;;;;;;;4.13;2.45;;;13.80;93.70;;;;;;5035819;28;20030;-92
2024/03/15 09:17:58;;;;;;;4.88;3.13;;;13.80;90.70;;;;;;5035343;28;20021;-92
2024/03/15 09:20:42;;;;;;;5.22;3.58;;;13.80;92.30;;;;;;5019958;28;20034;-91
2024/03/15 09:23:11;;;;;;;6.78;2.95;;;13.90;91.30;;;;;;5014808;28;20305;-91
2024/03/15 09:25:37;;;;;;;3.58;2.90;;;13.80;91.10;;;;;;5015585;28;20030;-92
2024/03/15 09:28:05;;;;;;;6.70;4.15;;;13.80;88.70;;;;;;5032570;28;20040;-90
2024/03/15 09:30:36;;;;;;;5.22;3.13;;;13.80;90.90;;;;;;5036416;28;20058;-90
2024/03/15 09:33:03;;;;;;;5.85;3.15;;;13.60;91.30;;;;;;5028685;28;20037;-91
2024/03/15 09:35:31;;;;;;;5.45;3.53;;;13.70;93.00;;;;;;5027280;28;20075;-90
2024/03/15 09:37:56;;;;;;;5.68;3.05;;;13.60;95.00;;;;;;5038040;28;20077;-93
2024/03/15 09:40:28;;;;;;;4.60;2.65;;;13.60;94.40;;;;;;5039535;28;20060;-93
2024/03/15 09:42:54;;;;;;;5.05;3.70;;;13.70;95.30;;;;;;5031053;28;20389;-92
2024/03/15 09:45:26;;;;;;;4.93;3.35;;;13.70;93.20;;;;;;5036786;28;20044;-92
2024/03/15 09:47:53;;;;;;;6.32;3.85;;;13.90;95.60;;;;;;5050084;28;20064;-89
2024/03/15 09:50:24;;;;;;;6.88;4.03;;;13.90;92.80;;;;;;5039239;28;20021;-90
2024/03/15 09:52:55;;;;;;;4.97;2.75;;;13.80;95.90;;;;;;5035770;28;20025;-93
2024/03/15 09:55:21;;;;;;;5.60;3.90;;;13.80;92.80;;;;;;5036192;28;20079;-92
2024/03/15 09:57:49;;;;;;;6.60;4.63;;;13.70;95.70;;;;;;5034119;28;20061;-92
2024/03/15 10:00:23;;;;;;;5.05;3.50;;;13.70;94.70;;;;;;5033876;28;20033;-93
2024/03/15 10:02:52;;;;;;;6.00;3.15;;;13.60;93.60;;;;;;5034427;28;20052;-90
2024/03/15 10:05:22;;;;;;;4.72;3.17;;;13.50;94.40;;;;;;5035812;28;20048;-91
2024/03/15 10:07:51;;;;;;;4.85;3.63;;;13.40;95.00;;;;;;5034629;28;20028;-92
2024/03/15 10:10:18;;;;;;;6.00;3.53;;;13.30;93.50;;;;;;5034422;28;20115;-91
2024/03/15 10:12:45;;;;;;;7.57;3.58;;;13.30;94.20;;;;;;5034002;28;20026;-91
2024/03/15 10:15:12;;;;;;;7.10;3.42;;;13.20;94.20;;;;;;5020323;28;20105;-91
2024/03/15 10:17:39;;;;;;;6.43;3.00;;;13.10;93.50;;;;;;5015357;28;20034;-91
2024/03/15 10:20:25;;;;;;;8.05;3.63;;;13.20;94.20;;;;;;5019996;28;20021;-91
2024/03/15 10:22:53;;;;;;;8.60;3.35;;;13.10;94.30;;;;;;5034108;28;20037;-91
2024/03/15 10:25:21;;;;;;;5.40;4.15;;;13.20;93.70;;;;;;5035044;28;20082;-91
2024/03/15 10:27:54;;;;;;;8.05;4.00;;;13.20;93.80;;;;;;5029075;28;20026;-91
2024/03/15 10:30:24;;;;;;;6.22;3.97;;;13.30;94.30;;;;;;5032714;28;20017;-91
2024/03/15 10:32:54;;;;;;;6.10;3.42;;;13.30;94.90;;;;;;5038095;28;20026;-92
2024/03/15 10:35:22;;;;;;;6.15;3.72;;;13.30;93.90;;;;;;5038790;28;20025;-90
2024/03/15 10:37:49;;;;;;;4.57;3.58;;;13.30;92.40;;;;;;5044199;28;20026;-92
2024/03/15 10:40:17;;;;;;;6.32;3.47;;;13.40;92.50;;;;;;5026871;28;20033;-92
2024/03/15 10:42:46;;;;;;;5.70;3.88;;;13.40;92.70;;;;;;5038130;28;20025;-93
2024/03/15 10:45:13;;;;;;;4.35;2.75;;;13.50;92.70;;;;;;5037645;28;20026;-91
2024/03/15 10:47:49;;;;;;;5.18;3.00;;;13.50;90.90;;;;;;5036926;28;20045;-91
2024/03/15 10:50:17;;;;;;;7.03;2.85;;;13.60;90.50;;;;;;5037193;28;20583;-91
2024/03/15 10:52:47;;;;;;;3.42;2.55;;;13.60;90.60;;;;;;5033114;28;20040;-92
2024/03/15 10:55:16;;;;;;;4.78;2.95;;;13.70;88.50;;;;;;5037483;28;20033;-93
2024/03/15 10:57:43;;;;;;;7.55;3.08;;;13.80;89.30;;;;;;5037717;28;20025;-91
2024/03/15 11:00:17;;;;;;;12.68;3.42;;;13.90;89.30;;;;;;5035859;28;20103;-90
2024/03/15 11:02:47;;;;;;;5.07;2.45;;;14.10;89.00;;;;;;5018455;28;20029;-91
2024/03/15 11:05:24;;;;;;;6.57;3.47;;;14.20;88.20;;;;;;5018767;28;20030;-90
2024/03/15 11:08:08;;;;;;;4.32;2.63;;;14.30;86.70;;;;;;5017661;28;20037;-91
2024/03/15 11:10:36;;;;;;;4.75;3.30;;;14.20;87.30;;;;;;5034585;28;20602;-90
2024/03/15 11:13:05;;;;;;;3.85;2.28;;;14.20;86.90;;;;;;5037403;28;20053;-90
2024/03/15 11:15:35;;;;;;;4.22;2.50;;;14.30;86.70;;;;;;5037105;28;20029;-92
2024/03/15 11:18:06;;;;;;;3.97;2.70;;;14.40;87.40;;;;;;5038541;28;20037;-92
2024/03/15 11:20:48;;;;;;;4.43;2.45;;;14.40;86.10;;;;;;5029140;28;20037;-91
2024/03/15 11:23:19;;;;;;;5.75;2.28;;;14.30;86.50;;;;;;5036301;28;20365;-92
2024/03/15 11:26:01;;;;;;;5.95;3.25;;;14.20;88.50;;;;;;5038366;28;20037;-90
2024/03/15 11:28:31;;;;;;;4.72;3.00;;;13.90;90.60;;;;;;5037304;28;20029;-91
2024/03/15 11:30:57;;;;;;;5.63;3.92;;;13.80;92.60;;;;;;5034787;28;20026;-91
2024/03/15 11:33:28;;;;;;;4.82;2.80;;;13.80;92.80;;;;;;5033878;28;20083;-90
2024/03/15 11:35:57;;;;;;;3.95;3.05;;;13.70;93.70;;;;;;5018046;28;20069;-91
2024/03/15 11:38:23;;;;;;;6.63;3.67;;;13.70;94.60;;;;;;5032727;28;20025;-91
2024/03/15 11:40:58;;;;;;;8.70;4.30;;;13.60;96.00;;;;;;5037025;28;20023;-93
2024/03/15 11:43:25;;;;;;;4.57;4.03;;;13.60;97.50;;;;;;5021378;28;20401;-90
2024/03/15 11:45:51;;;;;;;5.45;3.65;;;13.50;97.00;;;;;;5025754;28;20483;-92
2024/03/15 11:48:19;;;;;;;13.05;9.48;;;13.50;98.60;;;;;;5031078;28;20041;-91
2024/03/15 11:50:49;;;;;;;6.25;5.20;;;13.40;99.90;;;;;;5053000;28;20108;-91
2024/03/15 11:53:17;;;;;;;4.18;3.08;;;13.30;99.90;;;;;;5043300;28;20022;-91
2024/03/15 11:55:47;;;;;;;6.78;4.18;;;13.20;99.90;;;;;;5033495;28;20411;-91
2024/03/15 11:58:18;;;;;;;3.78;3.05;;;13.20;99.90;;;;;;5016926;28;20022;-91
2024/03/15 12:00:50;;;;;;;5.57;3.00;;;13.00;99.90;;;;;;5018438;28;20037;-90
2024/03/15 12:03:17;;;;;;;4.93;3.00;;;12.90;99.90;;;;;;5015658;28;20029;-91
2024/03/15 12:05:44;;;;;;;6.93;3.17;;;12.80;99.90;;;;;;5015139;28;20053;-90
2024/03/15 12:08:23;;;;;;;5.80;2.90;;;12.80;99.90;;;;;;5025264;28;20029;-91
2024/03/15 12:10:50;;;;;;;5.15;3.03;;;12.70;99.90;;;;;;5031291;28;20083;-92
2024/03/15 12:13:24;;;;;;;4.93;2.72;;;12.70;99.90;;;;;;5029006;28;20499;-88
2024/03/15 12:15:51;;;;;;;9.05;2.78;;;12.70;99.90;;;;;;5031629;28;20045;-91
2024/03/15 12:18:18;;;;;;;5.60;2.72;;;12.70;99.90;;;;;;5032170;28;20255;-91
2024/03/15 12:20:45;;;;;;;4.65;3.10;;;12.80;99.90;;;;;;5032865;28;20156;-89
2024/03/15 12:23:21;;;;;;;6.45;3.28;;;12.80;99.90;;;;;;5034455;28;20466;-90
2024/03/15 12:25:48;;;;;;;4.50;2.75;;;12.80;99.90;;;;;;5032861;28;20025;-91
2024/03/15 12:28:19;;;;;;;2.72;2.13;;;12.90;99.90;;;;;;5032617;28;20061;-91
2024/03/15 12:30:45;;;;;;;5.15;2.65;;;12.80;99.90;;;;;;5031894;28;20075;-89
2024/03/15 12:33:12;;;;;;;3.92;2.45;;;12.90;99.90;;;;;;5035062;28;20077;-91
2024/03/15 12:35:39;;;;;;;5.80;2.83;;;12.90;99.90;;;;;;5035688;28;20063;-89
2024/03/15 12:38:06;;;;;;;4.35;2.58;;;13.00;99.90;;;;;;5030254;28;20018;-90
2024/03/15 12:40:32;;;;;;;4.07;2.85;;;13.00;99.90;;;;;;5031932;28;20021;-90
2024/03/15 12:42:58;;;;;;;4.80;2.95;;;13.00;99.90;;;;;;5032655;28;20035;-90
2024/03/15 12:45:24;;;;;;;7.30;2.95;;;13.00;99.90;;;;;;5033444;28;20079;-88
2024/03/15 12:47:50;;;;;;;5.68;3.40;;;13.10;99.90;;;;;;5029327;28;20026;-89
2024/03/15 12:50:26;;;;;;;5.75;3.40;;;13.20;99.90;;;;;;5030186;28;20020;-90
2024/03/15 12:52:53;;;;;;;7.25;3.42;;;13.20;99.90;;;;;;5031925;28;20048;-90
2024/03/15 12:55:19;;;;;;;4.90;2.65;;;13.20;99.90;;;;;;5033655;28;20020;-90